OOCL California — VRWC8 — position and weather

sailwx.info

Track history (hours):
 
Tides and Currents Weather Stations Pressure Air Temp Water Temp Dewpoint Dewpoint Depression Visibility Wind Speed Wind Dir Waves Ship Positions

OOCL California

Last reported at 2017-Aug-18 00:00 UTC. Time now 2017-Aug-18 02:59 UTC.
Position N 05°48' E 081°42'.

Length 276 m; beam 40 m; draft 14 m.

Type: Ship. MMSI: 477704000.

Wind from 240 at 22 knots

Barometer 1002.0 mb
Air temperature 27.0 ° C
Visibility: greater than 5.4 NM
Dewpoint 24.3 ° C

Date/timePositionNaut miles runAvg speedWind from/ knotsBaromVisibWave heightAir tempDewpointWater temp
2017-Aug-18 00:00N 05°48' E 081°42'41217.2 240 / 221002.0 5.4 27.024.3
2017-Aug-17 00:00N 05°54' E 088°36'41217.2 230 / 181003.010.8 27.022.8
2017-Aug-16 00:00N 05°54' E 095°30'54616.0 230 / 161004.010.8 26.021.8
2017-Aug-14 13:51N 01°17' E 103°21'616.7
2017-Aug-14 13:30N 01°14' E 103°27'816.2
2017-Aug-14 13:00N 01°12' E 103°34'611.8
2017-Aug-14 12:30N 01°13' E 103°40'611.9
2017-Aug-14 12:01N 01°17' E 103°45'1 2.2
2017-Aug-14 11:27N 01°17' E 103°46'0 0.0
2017-Aug-14 11:00N 01°17' E 103°46'0 0.0
2017-Aug-14 10:30N 01°17' E 103°46'0 0.0
2017-Aug-14 10:00N 01°17' E 103°46'0 0.0
2017-Aug-14 09:30N 01°17' E 103°46'0 0.0
2017-Aug-14 09:00N 01°17' E 103°46'0 0.0
2017-Aug-14 08:27N 01°17' E 103°46'0 0.0
2017-Aug-14 07:54N 01°17' E 103°46'0 0.0
2017-Aug-14 07:30N 01°17' E 103°46'0 0.0
2017-Aug-14 06:57N 01°17' E 103°46'0 0.0
2017-Aug-14 06:30N 01°17' E 103°46'0 0.0
2017-Aug-14 06:00N 01°17' E 103°46'0 0.0
2017-Aug-14 05:30N 01°17' E 103°46'0 0.0
2017-Aug-14 05:00N 01°17' E 103°46'0 0.0
2017-Aug-14 04:24N 01°17' E 103°46'0 0.0
2017-Aug-14 03:57N 01°17' E 103°46'0 0.0
2017-Aug-14 03:30N 01°17' E 103°46'0 0.0
2017-Aug-14 02:57N 01°17' E 103°46'0 0.0
2017-Aug-14 02:30N 01°17' E 103°46'0 0.0
2017-Aug-14 02:00N 01°17' E 103°46'0 0.0
2017-Aug-14 01:30N 01°17' E 103°46'0 0.0
2017-Aug-14 01:00N 01°17' E 103°46'0 0.0
2017-Aug-14 00:27N 01°17' E 103°46'0 0.0
2017-Aug-13 23:57N 01°17' E 103°46'0 0.0
2017-Aug-13 23:30N 01°17' E 103°46'0 0.0
2017-Aug-13 22:57N 01°17' E 103°46'0 0.0
2017-Aug-13 22:30N 01°17' E 103°46'0 0.0
2017-Aug-13 21:57N 01°17' E 103°46'0 0.0
2017-Aug-13 21:30N 01°17' E 103°46'0 0.0
2017-Aug-13 20:57N 01°17' E 103°46'0 0.0
2017-Aug-13 20:30N 01°17' E 103°46'0 0.0
2017-Aug-13 19:51N 01°17' E 103°46'0 0.0
2017-Aug-13 19:30N 01°17' E 103°46'0 0.0
2017-Aug-13 18:57N 01°17' E 103°46'0 0.0
2017-Aug-13 18:30N 01°17' E 103°46'0 0.0
2017-Aug-13 17:57N 01°17' E 103°46'0 0.0
2017-Aug-13 17:30N 01°17' E 103°46'0 0.0
2017-Aug-13 16:57N 01°17' E 103°46'0 0.0
2017-Aug-13 16:30N 01°17' E 103°46'0 0.0
2017-Aug-13 16:00N 01°17' E 103°46'0 0.0
2017-Aug-13 15:30N 01°17' E 103°46'0 0.0
2017-Aug-13 15:00N 01°17' E 103°46'0 0.0
2017-Aug-13 14:30N 01°17' E 103°46'0 0.3
2017-Aug-13 14:00N 01°17' E 103°46'1 2.3
2017-Aug-13 13:31N 01°16' E 103°45'4 9.0
2017-Aug-13 13:01N 01°13' E 103°48'611.8
2017-Aug-13 12:30N 01°14' E 103°54'4 7.2
2017-Aug-13 12:00N 01°15' E 103°58'5 9.7
2017-Aug-13 11:31N 01°16' E 104°02'5 9.9
2017-Aug-13 10:58N 01°17' E 104°08'4 8.2
2017-Aug-13 10:30N 01°17' E 104°11'6 7.9
2017-Aug-13 09:46N 01°18' E 104°17'10811.0
2017-Aug-13 00:00N 02°54' E 105°06'   200 / 161005.010.8 26.023.2
2017-Aug-08 02:14N 22°48' E 116°48'  
Track history (hours):
 
Tides and Currents Weather Stations Pressure Air Temp Water Temp Dewpoint Dewpoint Depression Visibility Wind Speed Wind Dir Waves Ship Positions

OOCL California

Last reported at 2017-Aug-18 00:00 UTC. Time now 2017-Aug-18 02:59 UTC.
Position N 05°48' E 081°42'.

Length 276 m; beam 40 m; draft 14 m.

Type: Ship. MMSI: 477704000.

Wind from 240 at 22 knots

Barometer 1002.0 mb
Air temperature 27.0 ° C
Visibility: greater than 5.4 NM
Dewpoint 24.3 ° C

Date/timePositionNaut miles runAvg speedWind from/ knotsBaromVisibWave heightAir tempDewpointWater temp
2017-Aug-18 00:00N 05°48' E 081°42'41217.2 240 / 221002.0 5.4 27.024.3
2017-Aug-17 00:00N 05°54' E 088°36'41217.2 230 / 181003.010.8 27.022.8
2017-Aug-16 00:00N 05°54' E 095°30'54616.0 230 / 161004.010.8 26.021.8
2017-Aug-14 13:51N 01°17' E 103°21'616.7
2017-Aug-14 13:30N 01°14' E 103°27'816.2
2017-Aug-14 13:00N 01°12' E 103°34'611.8
2017-Aug-14 12:30N 01°13' E 103°40'611.9
2017-Aug-14 12:01N 01°17' E 103°45'1 2.2
2017-Aug-14 11:27N 01°17' E 103°46'0 0.0
2017-Aug-14 11:00N 01°17' E 103°46'0 0.0
2017-Aug-14 10:30N 01°17' E 103°46'0 0.0
2017-Aug-14 10:00N 01°17' E 103°46'0 0.0
2017-Aug-14 09:30N 01°17' E 103°46'0 0.0
2017-Aug-14 09:00N 01°17' E 103°46'0 0.0
2017-Aug-14 08:27N 01°17' E 103°46'0 0.0
2017-Aug-14 07:54N 01°17' E 103°46'0 0.0
2017-Aug-14 07:30N 01°17' E 103°46'0 0.0
2017-Aug-14 06:57N 01°17' E 103°46'0 0.0
2017-Aug-14 06:30N 01°17' E 103°46'0 0.0
2017-Aug-14 06:00N 01°17' E 103°46'0 0.0
2017-Aug-14 05:30N 01°17' E 103°46'0 0.0
2017-Aug-14 05:00N 01°17' E 103°46'0 0.0
2017-Aug-14 04:24N 01°17' E 103°46'0 0.0
2017-Aug-14 03:57N 01°17' E 103°46'0 0.0
2017-Aug-14 03:30N 01°17' E 103°46'0 0.0
2017-Aug-14 02:57N 01°17' E 103°46'0 0.0
2017-Aug-14 02:30N 01°17' E 103°46'0 0.0
2017-Aug-14 02:00N 01°17' E 103°46'0 0.0
2017-Aug-14 01:30N 01°17' E 103°46'0 0.0
2017-Aug-14 01:00N 01°17' E 103°46'0 0.0
2017-Aug-14 00:27N 01°17' E 103°46'0 0.0
2017-Aug-13 23:57N 01°17' E 103°46'0 0.0
2017-Aug-13 23:30N 01°17' E 103°46'0 0.0
2017-Aug-13 22:57N 01°17' E 103°46'0 0.0
2017-Aug-13 22:30N 01°17' E 103°46'0 0.0
2017-Aug-13 21:57N 01°17' E 103°46'0 0.0
2017-Aug-13 21:30N 01°17' E 103°46'0 0.0
2017-Aug-13 20:57N 01°17' E 103°46'0 0.0
2017-Aug-13 20:30N 01°17' E 103°46'0 0.0
2017-Aug-13 19:51N 01°17' E 103°46'0 0.0
2017-Aug-13 19:30N 01°17' E 103°46'0 0.0
2017-Aug-13 18:57N 01°17' E 103°46'0 0.0
2017-Aug-13 18:30N 01°17' E 103°46'0 0.0
2017-Aug-13 17:57N 01°17' E 103°46'0 0.0
2017-Aug-13 17:30N 01°17' E 103°46'0 0.0
2017-Aug-13 16:57N 01°17' E 103°46'0 0.0
2017-Aug-13 16:30N 01°17' E 103°46'0 0.0
2017-Aug-13 16:00N 01°17' E 103°46'0 0.0
2017-Aug-13 15:30N 01°17' E 103°46'0 0.0
2017-Aug-13 15:00N 01°17' E 103°46'0 0.0
2017-Aug-13 14:30N 01°17' E 103°46'0 0.3
2017-Aug-13 14:00N 01°17' E 103°46'1 2.3
2017-Aug-13 13:31N 01°16' E 103°45'4 9.0
2017-Aug-13 13:01N 01°13' E 103°48'611.8
2017-Aug-13 12:30N 01°14' E 103°54'4 7.2
2017-Aug-13 12:00N 01°15' E 103°58'5 9.7
2017-Aug-13 11:31N 01°16' E 104°02'5 9.9
2017-Aug-13 10:58N 01°17' E 104°08'4 8.2
2017-Aug-13 10:30N 01°17' E 104°11'6 7.9
2017-Aug-13 09:46N 01°18' E 104°17'10811.0
2017-Aug-13 00:00N 02°54' E 105°06'   200 / 161005.010.8 26.023.2
2017-Aug-08 02:14N 22°48' E 116°48'  

Dump ship's entire track history